Time;durP1;ratioP1;P1;durP2;ratioP2;P2;SDS_P1;SDS_P2;PMS_P1;PMS_P2;Temp;Humidity;BMP_temperature;BMP_pressure;BME280_temperature;BME280_humidity;BME280_pressure;Samples;Min_cycle;Max_cycle;Signal;HPM_P1;HPM_P2
2021/01/30 00:02:06;;;;;;;3.28;1.42;;;7.80;80.60;;;;;;4978513;28;20061;-65
2021/01/30 00:04:31;;;;;;;3.22;1.20;;;7.80;80.60;;;;;;4981350;28;20502;-65
2021/01/30 00:06:57;;;;;;;1.50;1.17;;;7.80;80.50;;;;;;4980763;28;20030;-65
2021/01/30 00:09:25;;;;;;;3.65;1.17;;;7.80;80.60;;;;;;4978915;28;20070;-65
2021/01/30 00:11:56;;;;;;;4.30;1.00;;;7.80;80.50;;;;;;4974637;28;20073;-65
2021/01/30 00:14:27;;;;;;;1.75;1.00;;;7.80;80.50;;;;;;4975358;28;20037;-64
2021/01/30 00:16:54;;;;;;;2.20;0.60;;;7.80;80.40;;;;;;4978356;28;20058;-63
2021/01/30 00:19:20;;;;;;;0.85;0.60;;;7.80;80.30;;;;;;4994174;28;20617;-65
2021/01/30 00:22:13;;;;;;;2.25;0.60;;;7.80;80.30;;;;;;4994931;28;20027;-65
2021/01/30 00:24:42;;;;;;;1.27;0.52;;;7.90;80.50;;;;;;4993076;28;20103;-65
2021/01/30 00:27:13;;;;;;;1.13;0.40;;;7.90;80.20;;;;;;4992543;28;20661;-65
2021/01/30 00:29:39;;;;;;;2.33;0.40;;;7.90;80.10;;;;;;4993853;28;20401;-65
2021/01/30 00:32:06;;;;;;;0.52;0.30;;;7.90;80.00;;;;;;4993475;28;20971;-65
2021/01/30 00:34:33;;;;;;;1.95;0.32;;;7.80;80.00;;;;;;4995790;28;20034;-63
2021/01/30 00:37:11;;;;;;;0.52;0.30;;;7.90;80.00;;;;;;4997438;28;20129;-65
2021/01/30 00:39:40;;;;;;;1.00;0.25;;;7.80;80.00;;;;;;4997149;28;20034;-65
2021/01/30 00:42:08;;;;;;;1.20;0.40;;;7.90;80.00;;;;;;4995685;28;20200;-65
2021/01/30 00:44:34;;;;;;;0.47;0.30;;;7.90;80.00;;;;;;4995502;28;20038;-65
2021/01/30 00:46:59;;;;;;;1.00;0.40;;;7.80;79.90;;;;;;4995474;28;20088;-64
2021/01/30 00:49:26;;;;;;;0.95;0.20;;;7.80;79.90;;;;;;4997461;28;20378;-65
2021/01/30 00:51:52;;;;;;;1.35;0.30;;;7.80;80.00;;;;;;4997802;28;20048;-66
2021/01/30 00:54:17;;;;;;;0.95;0.30;;;7.80;80.00;;;;;;4998541;28;20030;-65
2021/01/30 00:56:43;;;;;;;0.85;0.30;;;7.80;80.00;;;;;;4997999;28;20069;-66
2021/01/30 00:59:09;;;;;;;2.45;0.20;;;7.80;80.00;;;;;;4996618;28;20045;-65
2021/01/30 01:01:39;;;;;;;1.15;0.20;;;7.80;80.00;;;;;;4994677;28;20073;-65
2021/01/30 01:04:06;;;;;;;0.22;0.20;;;7.80;80.00;;;;;;4999091;28;20033;-65
2021/01/30 01:06:33;;;;;;;1.17;0.38;;;7.80;80.00;;;;;;4997941;28;20037;-66
2021/01/30 01:09:03;;;;;;;0.75;0.30;;;7.80;79.90;;;;;;4997990;28;20034;-65
2021/01/30 01:11:29;;;;;;;1.05;0.38;;;7.80;79.80;;;;;;4996002;28;20049;-65
2021/01/30 01:13:55;;;;;;;0.57;0.20;;;7.80;79.80;;;;;;4998259;28;20597;-65
2021/01/30 01:16:20;;;;;;;0.35;0.20;;;7.80;79.70;;;;;;4998368;28;20038;-65
2021/01/30 01:18:47;;;;;;;0.77;0.20;;;7.80;79.70;;;;;;4997148;28;20066;-65
2021/01/30 01:21:13;;;;;;;0.60;0.22;;;7.80;79.60;;;;;;4997100;28;20112;-65
2021/01/30 01:23:43;;;;;;;0.70;0.20;;;7.80;79.60;;;;;;4998613;28;20437;-65
2021/01/30 01:26:11;;;;;;;0.25;0.20;;;7.80;79.40;;;;;;4996087;28;20037;-65
2021/01/30 01:28:37;;;;;;;2.25;0.40;;;7.80;79.50;;;;;;4997317;28;20417;-64
2021/01/30 01:31:04;;;;;;;1.00;0.30;;;7.80;79.60;;;;;;4995114;28;20043;-65
2021/01/30 01:33:30;;;;;;;0.40;0.20;;;7.70;79.60;;;;;;4980463;28;20034;-65
2021/01/30 01:35:55;;;;;;;1.02;0.30;;;7.70;79.60;;;;;;4995175;28;20048;-65
2021/01/30 01:38:21;;;;;;;0.82;0.30;;;7.70;79.60;;;;;;4997498;28;20595;-65
2021/01/30 01:40:47;;;;;;;0.50;0.20;;;7.70;79.50;;;;;;4980500;28;20080;-65
2021/01/30 01:43:25;;;;;;;1.85;0.20;;;7.70;79.60;;;;;;4997317;28;20034;-65
2021/01/30 01:46:15;;;;;;;0.47;0.30;;;7.80;79.60;;;;;;4996585;28;20038;-65
2021/01/30 01:48:47;;;;;;;0.82;0.20;;;7.70;79.50;;;;;;4991060;28;20065;-65
2021/01/30 01:51:23;;;;;;;0.38;0.30;;;7.70;80.30;;;;;;4995304;28;20030;-65
2021/01/30 01:53:48;;;;;;;0.20;0.20;;;7.70;79.40;;;;;;4997271;28;20038;-65
2021/01/30 01:56:20;;;;;;;0.30;0.17;;;7.70;79.40;;;;;;4997369;28;20391;-64
2021/01/30 01:58:50;;;;;;;1.55;0.20;;;7.70;79.40;;;;;;4998225;28;20092;-65
2021/01/30 02:01:17;;;;;;;0.10;0.10;;;7.70;79.30;;;;;;4996976;28;20125;-65
2021/01/30 02:03:47;;;;;;;1.42;0.20;;;7.60;79.30;;;;;;4994398;28;20038;-65
2021/01/30 02:06:13;;;;;;;1.10;0.10;;;7.70;79.40;;;;;;4997407;28;20069;-65
2021/01/30 02:08:39;;;;;;;1.90;0.20;;;7.60;79.40;;;;;;4996248;28;20069;-65
2021/01/30 02:11:05;;;;;;;0.75;0.20;;;7.60;79.40;;;;;;4995756;28;20502;-65
2021/01/30 02:13:50;;;;;;;0.88;0.20;;;7.60;79.50;;;;;;4999093;28;20034;-65
2021/01/30 02:16:34;;;;;;;;;;;7.60;79.60;;;;;;5000631;28;20037;-65
2021/01/30 02:19:18;;;;;;;1.10;0.20;;;7.60;79.70;;;;;;4994868;28;19918;-64
2021/01/30 02:22:07;;;;;;;1.33;0.38;;;7.70;79.60;;;;;;4980396;28;20170;-65
2021/01/30 02:25:10;;;;;;;0.68;0.20;;;7.60;79.80;;;;;;4946462;28;20105;-65
2021/01/30 02:28:02;;;;;;;1.88;0.20;;;7.60;79.70;;;;;;4981333;28;20525;-65
2021/01/30 02:31:02;;;;;;;0.55;0.30;;;7.60;79.70;;;;;;4978168;28;20038;-65
2021/01/30 02:34:02;;;;;;;0.57;0.20;;;7.60;79.70;;;;;;4979124;28;20038;-65
2021/01/30 02:36:39;;;;;;;1.50;0.30;;;7.60;79.70;;;;;;4980499;28;20027;-65
2021/01/30 02:39:17;;;;;;;0.95;0.30;;;7.60;79.70;;;;;;4981935;28;20200;-65
2021/01/30 02:41:52;;;;;;;1.33;0.45;;;7.60;79.80;;;;;;4992130;28;20445;-65
2021/01/30 02:44:20;;;;;;;0.80;0.40;;;7.60;80.00;;;;;;4985144;28;20518;-65
2021/01/30 02:46:49;;;;;;;1.08;0.30;;;7.50;80.10;;;;;;4984612;28;20046;-65
2021/01/30 02:49:21;;;;;;;1.05;0.50;;;7.50;81.00;;;;;;4993379;28;20042;-65
2021/01/30 02:51:53;;;;;;;1.98;0.52;;;7.50;80.30;;;;;;4979320;28;20043;-65
2021/01/30 02:54:21;;;;;;;1.83;0.30;;;7.60;80.40;;;;;;4982112;28;20425;-65
2021/01/30 02:56:48;;;;;;;1.70;0.40;;;7.50;80.30;;;;;;4984381;28;20048;-65
2021/01/30 02:59:17;;;;;;;0.70;0.30;;;7.60;80.50;;;;;;4989231;28;20038;-65
2021/01/30 03:01:43;;;;;;;1.33;0.30;;;7.50;80.40;;;;;;4978669;28;20052;-64
2021/01/30 03:04:29;;;;;;;3.25;0.60;;;7.60;80.50;;;;;;4981011;28;20121;-65
2021/01/30 03:07:01;;;;;;;4.50;2.35;;;7.60;80.50;;;;;;4991705;28;20482;-65
2021/01/30 03:09:53;;;;;;;13.23;6.00;;;7.60;80.40;;;;;;4980206;28;20114;-65
2021/01/30 03:12:35;;;;;;;6.88;4.43;;;7.60;80.30;;;;;;4976983;28;20582;-64
2021/01/30 03:15:14;;;;;;;6.65;3.05;;;7.60;81.20;;;;;;4979659;28;20520;-64
2021/01/30 03:17:42;;;;;;;1.95;1.08;;;7.60;80.20;;;;;;4979419;28;20069;-64
2021/01/30 03:20:08;;;;;;;2.15;1.10;;;7.60;80.10;;;;;;4980358;28;20027;-65
2021/01/30 03:22:38;;;;;;;1.85;1.08;;;7.60;80.10;;;;;;4977929;28;20055;-65
2021/01/30 03:25:07;;;;;;;3.95;0.82;;;7.60;80.00;;;;;;4980221;28;20040;-65
2021/01/30 03:27:34;;;;;;;2.08;0.60;;;7.60;80.00;;;;;;4978401;28;20081;-65
2021/01/30 03:30:04;;;;;;;3.45;0.77;;;7.60;79.90;;;;;;4980276;28;20038;-65
2021/01/30 03:32:30;;;;;;;2.92;0.70;;;7.60;79.80;;;;;;4977610;28;20042;-65
2021/01/30 03:34:57;;;;;;;3.97;0.90;;;7.60;79.80;;;;;;4979143;28;20031;-65
2021/01/30 03:37:23;;;;;;;3.10;0.80;;;7.60;79.80;;;;;;4979540;28;20121;-65
2021/01/30 03:39:49;;;;;;;3.15;0.88;;;7.60;79.80;;;;;;4978572;28;20046;-65
2021/01/30 03:42:16;;;;;;;3.63;0.75;;;7.60;79.70;;;;;;4980091;28;20031;-65
2021/01/30 03:44:41;;;;;;;2.53;0.80;;;7.60;79.60;;;;;;4980031;28;20046;-65
2021/01/30 03:47:07;;;;;;;2.83;0.80;;;7.60;79.50;;;;;;4977904;28;20382;-65
2021/01/30 03:49:33;;;;;;;2.83;0.80;;;7.60;79.40;;;;;;4977999;28;20118;-65
2021/01/30 03:51:59;;;;;;;2.67;0.77;;;7.60;79.30;;;;;;4961948;28;20499;-64
2021/01/30 03:54:25;;;;;;;3.08;0.88;;;7.60;79.10;;;;;;4980660;28;20031;-64
2021/01/30 03:56:50;;;;;;;4.47;0.80;;;7.50;79.00;;;;;;4979301;28;20067;-65
2021/01/30 03:59:18;;;;;;;4.65;0.93;;;7.60;78.90;;;;;;4977799;28;20053;-66
2021/01/30 04:01:43;;;;;;;4.70;1.20;;;7.50;78.90;;;;;;4970506;28;20027;-65
2021/01/30 04:04:10;;;;;;;3.22;0.80;;;7.50;78.80;;;;;;4984909;28;20057;-65
2021/01/30 04:06:35;;;;;;;6.70;0.85;;;7.50;78.80;;;;;;4980170;28;20456;-65
2021/01/30 04:09:02;;;;;;;5.95;1.30;;;7.50;78.70;;;;;;4984622;28;20038;-65
2021/01/30 04:11:30;;;;;;;5.03;1.15;;;7.50;78.70;;;;;;4988320;28;20127;-65
2021/01/30 04:13:57;;;;;;;7.38;1.10;;;7.50;78.70;;;;;;4979831;28;20043;-65
2021/01/30 04:16:27;;;;;;;7.78;1.25;;;7.50;78.70;;;;;;4976141;28;20035;-65
2021/01/30 04:18:53;;;;;;;6.88;1.77;;;7.50;78.70;;;;;;4978433;28;20067;-64
2021/01/30 04:21:19;;;;;;;4.75;1.15;;;7.50;78.60;;;;;;4986527;28;20121;-65
2021/01/30 04:23:47;;;;;;;2.90;0.90;;;7.50;78.50;;;;;;4997419;28;20060;-65
2021/01/30 04:26:14;;;;;;;8.60;1.17;;;7.50;78.50;;;;;;5000052;28;20096;-65
2021/01/30 04:28:40;;;;;;;6.13;1.50;;;7.50;78.60;;;;;;4998627;28;20118;-64
2021/01/30 04:31:06;;;;;;;6.72;1.20;;;7.50;78.50;;;;;;4996542;28;20125;-65
2021/01/30 04:33:32;;;;;;;5.05;1.20;;;7.50;78.50;;;;;;4996041;28;20033;-65
2021/01/30 04:35:57;;;;;;;5.57;1.17;;;7.50;78.50;;;;;;4998184;28;20030;-65
2021/01/30 04:38:23;;;;;;;7.35;1.00;;;7.50;78.50;;;;;;4998195;28;20030;-65
2021/01/30 04:40:58;;;;;;;3.08;0.73;;;7.50;78.40;;;;;;4996603;28;22701;-65
2021/01/30 04:43:31;;;;;;;5.22;1.10;;;7.50;78.50;;;;;;4997683;28;20038;-64
2021/01/30 04:45:59;;;;;;;5.80;1.08;;;7.50;78.50;;;;;;4998034;28;20026;-65
2021/01/30 04:48:49;;;;;;;5.60;1.25;;;7.50;78.60;;;;;;4996329;28;20042;-64
2021/01/30 04:51:41;;;;;;;5.90;1.20;;;7.50;78.70;;;;;;4996724;28;20639;-65
2021/01/30 04:54:29;;;;;;;6.25;1.40;;;7.50;78.70;;;;;;4972471;28;20074;-64
2021/01/30 04:57:16;;;;;;;4.03;1.35;;;7.50;78.90;;;;;;4998214;28;20037;-64
2021/01/30 05:00:09;;;;;;;3.83;1.10;;;7.50;78.90;;;;;;4996431;28;20033;-64
2021/01/30 05:02:44;;;;;;;6.35;1.17;;;7.50;79.00;;;;;;4997026;28;20488;-65
2021/01/30 05:05:14;;;;;;;4.82;0.98;;;7.50;79.10;;;;;;4997509;28;20069;-64
2021/01/30 05:07:59;;;;;;;6.68;1.10;;;7.50;79.10;;;;;;4998127;28;20034;-63
2021/01/30 05:10:51;;;;;;;6.10;1.20;;;7.50;79.10;;;;;;4996289;28;20045;-65
2021/01/30 05:13:33;;;;;;;5.60;1.17;;;7.50;79.30;;;;;;4981974;28;20089;-65
2021/01/30 05:16:08;;;;;;;3.28;0.90;;;7.50;79.10;;;;;;4996050;28;20022;-65
2021/01/30 05:18:44;;;;;;;4.25;1.17;;;7.50;79.10;;;;;;4995317;28;20038;-64
2021/01/30 05:21:29;;;;;;;3.97;0.80;;;7.50;79.10;;;;;;4997738;28;20112;-65
2021/01/30 05:23:54;;;;;;;3.80;0.82;;;7.40;79.10;;;;;;4998747;28;20072;-65
2021/01/30 05:26:51;;;;;;;3.28;0.77;;;7.50;80.00;;;;;;4997299;28;20034;-65
2021/01/30 05:29:36;;;;;;;4.88;1.98;;;7.40;79.10;;;;;;4988871;28;20446;-65
2021/01/30 05:32:11;;;;;;;5.68;1.33;;;7.40;79.10;;;;;;4987509;28;20030;-65
2021/01/30 05:34:42;;;;;;;5.13;0.73;;;7.40;79.10;;;;;;4979009;28;20043;-65
2021/01/30 05:37:17;;;;;;;4.63;1.15;;;7.40;79.20;;;;;;4977561;28;20028;-65
2021/01/30 05:40:16;;;;;;;2.33;0.95;;;7.40;79.10;;;;;;4977547;28;20420;-65
2021/01/30 05:43:05;;;;;;;3.17;1.00;;;7.40;79.20;;;;;;4977793;28;20034;-66
2021/01/30 05:45:45;;;;;;;3.38;0.90;;;7.40;79.20;;;;;;4977055;28;20030;-64
2021/01/30 05:48:17;;;;;;;3.80;1.30;;;7.40;79.30;;;;;;4976086;28;20087;-65
2021/01/30 05:50:53;;;;;;;1.92;0.77;;;7.30;79.30;;;;;;4977417;28;20521;-65
2021/01/30 05:53:22;;;;;;;5.45;1.00;;;7.30;79.30;;;;;;4977992;28;20042;-65
2021/01/30 05:55:48;;;;;;;3.47;0.80;;;7.30;79.30;;;;;;4975720;28;20181;-64
2021/01/30 05:58:16;;;;;;;2.15;0.63;;;7.30;79.30;;;;;;4974728;28;20125;-65
2021/01/30 06:00:43;;;;;;;2.33;0.63;;;7.30;79.30;;;;;;4972967;28;20046;-65
2021/01/30 06:03:18;;;;;;;5.10;0.93;;;7.30;79.40;;;;;;4977255;28;20814;-65
2021/01/30 06:05:48;;;;;;;2.90;0.98;;;7.30;79.30;;;;;;4978290;28;20050;-65
2021/01/30 06:08:22;;;;;;;2.72;0.80;;;7.30;80.10;;;;;;4977665;28;20141;-64
2021/01/30 06:10:53;;;;;;;4.32;0.60;;;7.30;79.30;;;;;;4991488;28;20410;-65
2021/01/30 06:13:23;;;;;;;3.75;0.70;;;7.30;79.30;;;;;;4977739;28;20038;-66
2021/01/30 06:15:57;;;;;;;5.50;0.88;;;7.30;79.30;;;;;;4977526;28;20121;-65
2021/01/30 06:18:27;;;;;;;4.65;0.85;;;7.30;79.30;;;;;;4976233;28;20699;-65
2021/01/30 06:21:02;;;;;;;2.97;0.70;;;7.30;79.30;;;;;;4981961;28;20061;-65
2021/01/30 06:23:28;;;;;;;4.68;0.80;;;7.30;80.10;;;;;;4987838;28;20030;-65
2021/01/30 06:26:08;;;;;;;6.68;0.80;;;7.30;79.20;;;;;;4978707;28;20042;-64
2021/01/30 06:28:37;;;;;;;6.93;1.23;;;7.30;79.10;;;;;;4977638;28;20141;-64
2021/01/30 06:31:25;;;;;;;4.78;0.93;;;7.30;79.10;;;;;;4975695;28;20041;-64
2021/01/30 06:33:57;;;;;;;5.53;1.10;;;7.30;79.10;;;;;;4974138;28;20030;-64
2021/01/30 06:36:29;;;;;;;5.93;1.27;;;7.30;79.10;;;;;;4974328;28;20042;-65
2021/01/30 06:39:09;;;;;;;5.22;0.93;;;7.40;79.10;;;;;;4972849;28;20046;-65
2021/01/30 06:41:36;;;;;;;5.97;1.02;;;7.40;79.00;;;;;;4973149;28;20513;-64
2021/01/30 06:44:27;;;;;;;5.10;0.90;;;7.40;79.00;;;;;;4974082;28;20035;-64
2021/01/30 06:47:05;;;;;;;8.10;1.52;;;7.40;79.00;;;;;;4988810;28;20039;-65
2021/01/30 06:49:37;;;;;;;8.02;1.13;;;7.40;78.90;;;;;;4984796;28;20038;-65
2021/01/30 06:52:13;;;;;;;4.72;1.00;;;7.40;78.90;;;;;;4964284;28;20521;-65
2021/01/30 06:54:38;;;;;;;5.30;1.10;;;7.40;78.90;;;;;;4960349;28;20805;-65
2021/01/30 06:57:15;;;;;;;4.70;1.17;;;7.40;78.90;;;;;;4981853;28;20113;-64
2021/01/30 06:59:57;;;;;;;8.38;1.10;;;7.40;78.70;;;;;;4984320;28;20039;-65
2021/01/30 07:02:38;;;;;;;6.35;1.15;;;7.40;78.70;;;;;;4985203;28;20413;-65
2021/01/30 07:05:10;;;;;;;6.88;1.20;;;7.50;78.60;;;;;;4995493;28;20027;-65
2021/01/30 07:07:39;;;;;;;8.43;1.25;;;7.50;78.60;;;;;;4994688;28;20096;-65
2021/01/30 07:10:34;;;;;;;7.93;1.20;;;7.40;78.50;;;;;;4988951;28;20134;-64
2021/01/30 07:13:38;;;;;;;4.10;1.10;;;7.40;78.30;;;;;;4990741;28;20121;-64
2021/01/30 07:16:30;;;;;;;3.10;0.80;;;7.40;78.20;;;;;;4989079;28;20172;-65
2021/01/30 07:19:17;;;;;;;5.03;1.00;;;7.50;78.30;;;;;;4976734;28;20046;-65
2021/01/30 07:21:50;;;;;;;6.78;1.13;;;7.40;78.30;;;;;;4988898;28;20069;-65
2021/01/30 07:24:23;;;;;;;9.98;1.85;;;7.40;78.10;;;;;;4987182;28;20049;-65
2021/01/30 07:27:15;;;;;;;7.22;2.30;;;7.50;78.30;;;;;;4990058;28;20091;-65
2021/01/30 07:30:03;;;;;;;7.60;1.40;;;7.40;78.00;;;;;;4989176;28;20038;-65
2021/01/30 07:32:38;;;;;;;5.47;1.23;;;7.50;77.90;;;;;;4996874;28;20038;-65
2021/01/30 07:35:22;;;;;;;7.72;1.17;;;7.50;78.00;;;;;;4996416;28;20045;-65
2021/01/30 07:38:17;;;;;;;6.07;1.50;;;7.50;77.90;;;;;;4990792;28;20033;-65
2021/01/30 07:40:57;;;;;;;10.67;2.60;;;7.50;77.70;;;;;;4981427;28;20038;-65
2021/01/30 07:43:46;;;;;;;7.90;1.33;;;7.50;77.80;;;;;;4992157;28;20289;-65
2021/01/30 07:46:21;;;;;;;8.25;1.55;;;7.50;77.90;;;;;;4987534;28;20042;-65
2021/01/30 07:48:51;;;;;;;6.55;1.17;;;7.50;77.70;;;;;;4988388;28;20157;-64
2021/01/30 07:51:33;;;;;;;9.57;1.40;;;7.50;77.90;;;;;;4984723;28;20117;-65
2021/01/30 07:54:00;;;;;;;7.20;1.30;;;7.50;77.70;;;;;;4986846;28;20045;-64
2021/01/30 07:56:53;;;;;;;5.70;1.50;;;7.60;77.90;;;;;;4986630;28;20034;-64
2021/01/30 07:59:36;;;;;;;5.10;1.00;;;7.60;77.60;;;;;;4986708;28;20050;-65
2021/01/30 08:02:23;;;;;;;11.07;1.67;;;7.60;77.40;;;;;;4986798;28;20042;-62
2021/01/30 08:05:18;;;;;;;12.35;1.65;;;7.60;77.50;;;;;;4987784;28;20061;-65
2021/01/30 08:08:08;;;;;;;5.50;1.40;;;7.60;77.30;;;;;;4987443;28;20041;-65
2021/01/30 08:10:42;;;;;;;5.20;1.20;;;7.70;77.20;;;;;;4993847;28;20042;-65
2021/01/30 08:14:13;;;;;;;8.93;1.80;;;7.70;77.40;;;;;;4997784;28;20560;-66
2021/01/30 08:16:51;;;;;;;9.38;1.45;;;7.70;77.10;;;;;;4914593;29;20111;-66
2021/01/30 08:19:47;;;;;;;9.15;2.30;;;7.70;77.10;;;;;;4918134;29;20032;-66
2021/01/30 08:22:22;;;;;;;7.50;1.65;;;7.80;76.90;;;;;;4976661;28;20041;-66
2021/01/30 08:24:52;;;;;;;5.28;1.55;;;7.80;77.00;;;;;;4998641;28;20041;-66
2021/01/30 08:27:18;;;;;;;7.10;1.67;;;7.80;76.80;;;;;;4997560;28;20038;-67
2021/01/30 08:29:47;;;;;;;12.35;4.13;;;7.80;77.00;;;;;;4995427;28;20402;-66
2021/01/30 08:32:24;;;;;;;16.40;5.25;;;7.80;76.60;;;;;;4996631;28;20069;-65
2021/01/30 08:34:56;;;;;;;18.67;5.07;;;7.90;76.60;;;;;;4999030;28;20062;-65
2021/01/30 08:37:25;;;;;;;11.10;2.63;;;7.90;76.70;;;;;;4996472;28;20050;-65
2021/01/30 08:40:12;;;;;;;10.50;2.83;;;7.90;76.60;;;;;;4999586;28;20342;-63
2021/01/30 08:43:00;;;;;;;13.75;2.42;;;8.00;76.80;;;;;;4996846;28;20038;-66
2021/01/30 08:45:29;;;;;;;8.73;1.73;;;8.00;76.00;;;;;;4999530;28;20040;-65
2021/01/30 08:47:55;;;;;;;6.55;1.90;;;8.10;76.40;;;;;;4997950;28;20042;-66
2021/01/30 08:50:48;;;;;;;7.43;1.70;;;8.10;76.50;;;;;;4996564;28;20034;-65
2021/01/30 08:53:29;;;;;;;6.53;1.20;;;8.10;75.40;;;;;;4994440;28;20038;-65
2021/01/30 08:56:00;;;;;;;9.88;1.77;;;8.20;76.20;;;;;;4997188;28;20652;-65
2021/01/30 08:58:37;;;;;;;9.07;2.00;;;8.20;76.10;;;;;;4998211;28;22082;-65
2021/01/30 09:01:20;;;;;;;7.00;1.77;;;8.20;75.80;;;;;;4997376;28;20633;-65
2021/01/30 09:03:54;;;;;;;8.55;1.42;;;8.30;75.80;;;;;;4997870;28;20092;-66
2021/01/30 09:06:38;;;;;;;11.02;1.77;;;8.30;75.80;;;;;;4994595;28;20674;-66
2021/01/30 09:09:22;;;;;;;5.38;1.20;;;8.30;75.20;;;;;;4998036;28;20406;-66
2021/01/30 09:12:05;;;;;;;6.60;1.80;;;8.40;75.30;;;;;;4994131;28;20124;-65
2021/01/30 09:14:31;;;;;;;5.20;1.60;;;8.40;75.40;;;;;;4996223;28;20026;-66
2021/01/30 09:16:57;;;;;;;9.15;1.63;;;8.40;75.60;;;;;;4996370;28;20122;-65
2021/01/30 09:19:44;;;;;;;7.88;2.10;;;8.40;75.40;;;;;;4997815;28;20113;-65
2021/01/30 09:22:28;;;;;;;6.97;1.42;;;8.40;74.90;;;;;;4995823;28;20038;-65
2021/01/30 09:25:05;;;;;;;6.35;1.38;;;8.50;75.60;;;;;;4977184;28;20133;-65
2021/01/30 09:27:33;;;;;;;8.73;1.70;;;8.50;75.30;;;;;;4976950;28;20069;-65
2021/01/30 09:30:18;;;;;;;7.32;1.58;;;8.50;75.40;;;;;;4990031;28;20061;-65
2021/01/30 09:32:46;;;;;;;9.40;1.40;;;8.60;74.90;;;;;;4975050;28;20026;-65
2021/01/30 09:35:25;;;;;;;5.38;1.02;;;8.60;75.40;;;;;;4977889;28;20042;-65
2021/01/30 09:37:50;;;;;;;6.85;1.00;;;8.70;75.20;;;;;;4978448;28;20042;-66
2021/01/30 09:40:24;;;;;;;7.28;1.30;;;8.70;75.30;;;;;;4977179;28;20569;-65
2021/01/30 09:43:06;;;;;;;7.55;1.58;;;8.70;74.90;;;;;;4979848;28;20037;-65
2021/01/30 09:45:34;;;;;;;5.88;1.45;;;8.70;74.70;;;;;;4986180;28;20112;-65
2021/01/30 09:48:04;;;;;;;9.40;1.58;;;8.70;74.90;;;;;;4975722;28;20035;-65
2021/01/30 09:50:36;;;;;;;6.50;1.42;;;8.70;74.90;;;;;;4973302;28;20109;-65
2021/01/30 09:53:13;;;;;;;11.32;1.73;;;8.80;75.10;;;;;;4974168;28;20039;-65
2021/01/30 09:55:41;;;;;;;6.28;1.40;;;8.80;74.70;;;;;;4976814;28;20058;-65
2021/01/30 09:58:17;;;;;;;5.13;1.08;;;8.80;74.90;;;;;;4977308;28;20177;-66
2021/01/30 10:00:47;;;;;;;8.00;1.40;;;8.90;74.20;;;;;;4976789;28;20038;-65
2021/01/30 10:03:22;;;;;;;10.80;1.73;;;8.90;74.20;;;;;;4978025;28;20113;-65
2021/01/30 10:05:49;;;;;;;6.35;1.60;;;8.90;74.20;;;;;;4977001;28;20433;-65
2021/01/30 10:08:31;;;;;;;9.02;1.67;;;8.90;74.60;;;;;;4974105;28;20027;-65
2021/01/30 10:11:17;;;;;;;12.05;3.58;;;8.90;74.00;;;;;;4974101;28;20037;-65
2021/01/30 10:14:10;;;;;;;10.23;3.03;;;9.00;74.20;;;;;;4974510;28;20510;-65
2021/01/30 10:16:35;;;;;;;38.97;9.65;;;9.00;73.90;;;;;;4987861;28;20510;-66
2021/01/30 10:19:10;;;;;;;14.90;4.97;;;9.00;74.50;;;;;;4977064;28;20045;-66
2021/01/30 10:21:41;;;;;;;16.58;5.97;;;9.00;74.00;;;;;;4987320;28;20042;-66
2021/01/30 10:24:13;;;;;;;6.45;1.73;;;9.00;74.30;;;;;;4980362;28;20522;-66
2021/01/30 10:26:39;;;;;;;5.63;1.20;;;9.00;73.80;;;;;;4975569;28;20486;-66
2021/01/30 10:29:08;;;;;;;7.07;1.60;;;9.00;73.00;;;;;;4973887;28;20149;-66
2021/01/30 10:31:40;;;;;;;7.93;1.27;;;9.00;72.90;;;;;;4966490;28;20042;-65
2021/01/30 10:34:20;;;;;;;6.38;1.73;;;9.00;73.00;;;;;;4984120;28;20126;-66
2021/01/30 10:37:13;;;;;;;5.22;1.02;;;9.00;72.30;;;;;;4995120;28;20042;-66
2021/01/30 10:39:47;;;;;;;18.83;7.32;;;9.00;71.60;;;;;;4964485;28;20418;-66
2021/01/30 10:42:25;;;;;;;7.63;3.35;;;9.00;71.80;;;;;;4981377;28;20038;-66
2021/01/30 10:45:25;;;;;;;8.32;3.10;;;9.00;71.50;;;;;;4979310;28;20138;-67
2021/01/30 10:48:04;;;;;;;4.22;2.53;;;9.00;71.50;;;;;;4990450;28;20142;-66
2021/01/30 10:51:10;;;;;;;7.45;2.35;;;9.00;72.10;;;;;;4980489;28;20070;-65
2021/01/30 10:53:42;;;;;;;2.43;1.20;;;9.00;72.50;;;;;;4978152;28;20061;-65
2021/01/30 10:56:20;;;;;;;3.03;0.47;;;8.90;72.20;;;;;;4977965;28;20309;-65
2021/01/30 10:58:46;;;;;;;1.70;0.50;;;8.90;71.10;;;;;;4994587;28;20042;-65
2021/01/30 11:01:28;;;;;;;3.47;0.80;;;8.80;71.40;;;;;;4980299;28;20545;-66
2021/01/30 11:03:56;;;;;;;2.92;0.50;;;8.80;71.20;;;;;;4976913;28;20042;-66
2021/01/30 11:06:45;;;;;;;4.78;1.27;;;8.80;71.60;;;;;;4977096;28;20583;-65
2021/01/30 11:09:16;;;;;;;1.83;0.50;;;8.80;71.90;;;;;;4978442;28;20531;-65
2021/01/30 11:11:44;;;;;;;1.35;0.30;;;8.80;72.00;;;;;;4978627;28;20044;-65
2021/01/30 11:14:31;;;;;;;1.13;0.40;;;8.70;72.30;;;;;;4981767;28;20414;-65
2021/01/30 11:16:59;;;;;;;0.65;0.40;;;8.80;71.60;;;;;;4986003;28;20453;-65
2021/01/30 11:19:41;;;;;;;2.97;1.33;;;8.70;71.90;;;;;;4998439;28;20407;-65
2021/01/30 11:22:10;;;;;;;3.03;1.40;;;8.80;71.70;;;;;;4999802;28;20065;-65
2021/01/30 11:24:49;;;;;;;2.97;1.63;;;8.80;72.30;;;;;;5000724;28;20153;-65
2021/01/30 11:27:32;;;;;;;2.35;0.65;;;8.80;72.40;;;;;;4999914;28;20433;-67
2021/01/30 11:30:18;;;;;;;3.40;0.63;;;8.90;70.90;;;;;;4999716;28;20034;-65
2021/01/30 11:32:50;;;;;;;4.22;0.50;;;8.90;72.10;;;;;;4999077;28;20108;-65
2021/01/30 11:35:37;;;;;;;2.28;0.85;;;8.90;72.00;;;;;;4998349;28;20088;-65
2021/01/30 11:38:03;;;;;;;1.23;0.43;;;8.90;71.10;;;;;;4999487;28;20062;-65
2021/01/30 11:40:28;;;;;;;3.10;0.82;;;9.00;72.00;;;;;;4997857;28;20478;-64
2021/01/30 11:42:54;;;;;;;4.72;1.00;;;9.00;72.00;;;;;;4999745;28;20529;-65
2021/01/30 11:45:20;;;;;;;2.10;1.00;;;9.00;71.90;;;;;;4999350;28;20128;-65
2021/01/30 11:47:45;;;;;;;1.67;0.60;;;9.10;71.90;;;;;;4999848;28;20026;-65
2021/01/30 11:50:11;;;;;;;2.13;0.82;;;9.10;71.60;;;;;;4997811;28;20413;-65
2021/01/30 11:52:37;;;;;;;3.47;0.80;;;9.10;71.30;;;;;;4996671;28;20045;-65
2021/01/30 11:55:04;;;;;;;3.28;0.90;;;9.10;71.00;;;;;;4998188;28;20409;-63
2021/01/30 11:57:30;;;;;;;3.25;0.68;;;9.10;70.90;;;;;;4996293;28;20652;-64
2021/01/30 11:59:56;;;;;;;2.35;1.02;;;9.10;70.20;;;;;;4998339;28;20038;-65
2021/01/30 12:02:34;;;;;;;2.70;0.60;;;9.00;70.90;;;;;;4998046;28;20147;-65
2021/01/30 12:05:00;;;;;;;3.28;1.05;;;9.00;70.90;;;;;;4982353;28;20548;-65
2021/01/30 12:07:26;;;;;;;4.60;1.52;;;9.00;71.30;;;;;;4999413;28;20031;-65
2021/01/30 12:09:52;;;;;;;2.83;0.82;;;8.90;71.40;;;;;;4998959;28;20029;-65
2021/01/30 12:12:18;;;;;;;7.28;1.00;;;8.90;71.60;;;;;;4996111;28;20039;-65
2021/01/30 12:14:44;;;;;;;4.10;0.85;;;8.90;71.80;;;;;;4998133;28;20042;-65
2021/01/30 12:17:31;;;;;;;3.05;1.45;;;8.80;71.90;;;;;;4998879;28;20073;-65
2021/01/30 12:19:57;;;;;;;5.18;2.72;;;8.70;72.10;;;;;;4998944;28;20117;-64
2021/01/30 12:22:22;;;;;;;6.00;3.35;;;8.70;72.30;;;;;;4980018;28;20124;-65
2021/01/30 12:24:49;;;;;;;5.53;3.03;;;8.60;72.50;;;;;;4999120;28;20080;-65
2021/01/30 12:27:15;;;;;;;5.43;1.70;;;8.60;72.80;;;;;;4998038;28;20470;-65
2021/01/30 12:29:41;;;;;;;2.45;1.40;;;8.50;73.00;;;;;;4998193;28;20057;-65
2021/01/30 12:32:07;;;;;;;4.05;1.10;;;8.50;73.20;;;;;;4998568;28;20084;-65
2021/01/30 12:34:32;;;;;;;3.40;1.10;;;8.40;73.40;;;;;;4996916;28;20113;-65
2021/01/30 12:36:58;;;;;;;4.18;1.00;;;8.40;73.50;;;;;;4998706;28;20058;-65
2021/01/30 12:39:24;;;;;;;4.72;1.58;;;8.40;73.70;;;;;;4998871;28;20053;-65
2021/01/30 12:41:50;;;;;;;3.38;1.83;;;8.40;74.10;;;;;;4998100;28;20533;-65
2021/01/30 12:44:16;;;;;;;4.47;1.60;;;8.30;74.30;;;;;;4997521;28;20061;-65
2021/01/30 12:46:46;;;;;;;4.65;2.00;;;8.20;74.50;;;;;;4996724;28;20513;-65
2021/01/30 12:49:12;;;;;;;3.60;1.77;;;8.30;74.90;;;;;;4998392;28;20448;-66
2021/01/30 12:51:39;;;;;;;2.63;1.10;;;8.20;75.00;;;;;;4996736;28;20033;-65
2021/01/30 12:54:05;;;;;;;4.25;1.70;;;8.20;75.30;;;;;;4987162;28;20058;-65
2021/01/30 12:56:31;;;;;;;7.10;3.30;;;8.20;75.50;;;;;;4986381;28;20374;-65
2021/01/30 12:58:56;;;;;;;5.45;2.67;;;8.10;75.60;;;;;;4988357;28;20046;-65
2021/01/30 13:01:22;;;;;;;3.75;1.77;;;8.10;75.60;;;;;;4986539;28;20563;-65
2021/01/30 13:03:48;;;;;;;4.82;1.80;;;8.10;75.80;;;;;;4971780;28;20045;-65
2021/01/30 13:06:15;;;;;;;5.63;2.22;;;8.10;76.10;;;;;;4992879;28;20046;-65
2021/01/30 13:08:41;;;;;;;4.85;1.70;;;8.10;76.20;;;;;;4989074;28;20735;-65
2021/01/30 13:11:06;;;;;;;3.05;1.50;;;8.00;76.10;;;;;;4985704;28;20041;-66
2021/01/30 13:13:32;;;;;;;5.68;1.10;;;8.00;76.10;;;;;;4982636;28;20085;-66
2021/01/30 13:15:57;;;;;;;5.32;1.40;;;8.00;76.10;;;;;;4975677;28;20056;-65
2021/01/30 13:18:23;;;;;;;3.65;1.20;;;8.00;76.10;;;;;;4988284;28;20438;-66
2021/01/30 13:20:49;;;;;;;7.13;1.73;;;8.00;76.50;;;;;;4994339;28;20030;-66
2021/01/30 13:23:14;;;;;;;5.25;1.98;;;7.90;76.60;;;;;;4977218;28;20033;-66
2021/01/30 13:25:40;;;;;;;4.15;1.50;;;7.90;76.80;;;;;;4994078;28;20581;-66
2021/01/30 13:28:06;;;;;;;7.72;1.25;;;7.90;77.10;;;;;;4992458;28;20038;-66
2021/01/30 13:30:32;;;;;;;3.72;1.00;;;7.90;77.20;;;;;;4996279;28;20461;-66
2021/01/30 13:32:58;;;;;;;3.40;0.90;;;7.90;77.20;;;;;;4997214;28;20038;-66